Time;durP1;ratioP1;P1;durP2;ratioP2;P2;SDS_P1;SDS_P2;PMS_P1;PMS_P2;Temp;Humidity;BMP_temperature;BMP_pressure;BME280_temperature;BME280_humidity;BME280_pressure;Samples;Min_cycle;Max_cycle;Signal;HPM_P1;HPM_P2
2022/01/21 00:01:08;;;;;;;;;11.00;5.25;;;;;7.86;61.74;103354.09;5107758;27;45264;-76
2022/01/21 00:03:34;;;;;;;;;10.75;6.75;;;;;7.86;62.16;103354.09;5101890;27;45397;-77
2022/01/21 00:05:59;;;;;;;;;6.00;6.00;;;;;7.84;62.04;103357.47;5108218;27;45681;-77
2022/01/21 00:08:24;;;;;;;;;6.00;5.00;;;;;7.83;62.18;103355.66;5100333;27;54524;-77
2022/01/21 00:10:51;;;;;;;;;10.00;5.50;;;;;7.79;62.18;103359.81;5099784;27;58614;-76
2022/01/21 00:13:23;;;;;;;;;9.50;8.25;;;;;7.75;62.11;103349.91;5100560;27;45194;-76
2022/01/21 00:15:49;;;;;;;;;10.25;5.25;;;;;7.67;62.13;103335.38;5100794;27;45343;-77
2022/01/21 00:18:14;;;;;;;;;5.00;5.00;;;;;7.79;62.37;103361.53;5086477;27;47657;-76
2022/01/21 00:31:35;;;;;;;;;7.50;5.00;;;;;7.67;62.33;103338.00;5120724;27;45356;-76
2022/01/21 00:34:00;;;;;;;;;8.75;5.25;;;;;7.61;62.01;103338.50;5121057;27;45589;-77
2022/01/21 00:36:26;;;;;;;;;7.50;6.00;;;;;7.61;62.39;103348.09;5120423;27;58011;-76
2022/01/21 00:38:54;;;;;;;;;10.50;3.00;;;;;7.55;62.34;103339.84;5120716;27;46694;-76
2022/01/21 00:41:23;;;;;;;;;5.00;5.00;;;;;7.53;62.42;103346.72;5120370;27;45294;-75
2022/01/21 00:43:48;;;;;;;;;6.00;5.25;;;;;7.47;62.63;103338.47;5104401;27;45350;-76
2022/01/21 00:46:13;;;;;;;;;5.00;3.00;;;;;7.44;62.76;103333.00;5099599;27;53887;-76
2022/01/21 00:48:39;;;;;;;;;8.25;6.75;;;;;7.40;62.72;103328.34;5099954;27;47330;-76
2022/01/21 00:51:04;;;;;;;;;8.00;5.50;;;;;7.32;62.81;103314.72;5085885;27;45487;-76
2022/01/21 00:53:30;;;;;;;;;9.75;5.00;;;;;7.41;62.92;103330.19;5104164;27;45233;-76
2022/01/21 00:55:55;;;;;;;;;12.25;6.25;;;;;7.46;63.09;103329.66;5115797;27;55093;-76
2022/01/21 00:58:20;;;;;;;;;11.50;7.00;;;;;7.47;62.80;103327.94;5120084;27;48636;-76
2022/01/21 01:00:46;;;;;;;;;7.50;4.50;;;;;7.46;62.85;103334.03;5119557;27;58026;-76
2022/01/21 01:03:13;;;;;;;;;10.00;7.25;;;;;7.44;62.75;103341.78;5102889;27;53548;-77
2022/01/21 01:05:39;;;;;;;;;9.00;5.50;;;;;7.43;63.07;103341.69;5100024;27;45290;-77
2022/01/21 01:08:04;;;;;;;;;10.25;6.00;;;;;7.37;63.10;103329.06;5101544;27;61413;-76
2022/01/21 01:11:19;;;;;;;;;9.00;5.25;;;;;7.43;62.93;103345.22;5120003;27;45332;-77
2022/01/21 01:21:31;;;;;;;;;11.00;6.50;;;;;7.42;62.72;103332.00;5104417;27;45486;-76
2022/01/21 01:29:29;;;;;;;;;10.50;6.00;;;;;7.29;63.04;103325.03;5120912;27;45701;-77
2022/01/21 01:31:54;;;;;;;;;5.50;5.50;;;;;7.25;63.00;103336.19;5118439;27;58544;-77
2022/01/21 01:34:20;;;;;;;;;8.25;6.00;;;;;7.21;63.31;103339.41;5112954;27;54494;-76
2022/01/21 01:36:47;;;;;;;;;7.50;6.00;;;;;7.17;63.27;103343.53;5098700;27;48965;-76
2022/01/21 01:41:58;;;;;;;;;10.25;7.00;;;;;7.12;63.25;103333.53;5099142;27;45357;-76
2022/01/21 01:49:51;;;;;;;;;5.00;2.00;;;;;6.97;63.49;103322.94;5089104;27;45450;-76
2022/01/21 01:52:17;;;;;;;;;6.75;3.50;;;;;6.91;63.51;103327.78;5098714;27;60027;-77
2022/01/21 01:54:48;;;;;;;;;10.00;6.00;;;;;6.93;63.46;103341.97;5100163;27;45349;-77
2022/01/21 01:57:14;;;;;;;;;10.00;5.50;;;;;6.88;63.77;103346.91;5106026;27;45318;-76
2022/01/21 01:59:39;;;;;;;;;6.00;5.00;;;;;6.88;63.69;103348.63;5098175;27;61391;-76
2022/01/21 02:02:06;;;;;;;;;11.25;5.75;;;;;6.85;63.80;103343.16;5099668;27;45425;-76
2022/01/21 02:04:32;;;;;;;;;9.25;6.00;;;;;6.81;63.76;103353.44;5111466;27;45304;-77
2022/01/21 02:06:57;;;;;;;;;15.50;6.00;;;;;6.83;63.57;103364.06;5110019;27;54681;-76
2022/01/21 02:09:23;;;;;;;;;9.00;5.00;;;;;6.78;63.73;103345.38;5098570;27;47497;-76
2022/01/21 02:11:48;;;;;;;;;10.00;4.00;;;;;6.77;64.02;103348.81;5103183;27;45924;-76
2022/01/21 02:14:20;;;;;;;;;5.50;4.00;;;;;6.74;63.89;103355.56;5080171;27;45684;-75
2022/01/21 02:17:16;;;;;;;;;9.25;5.00;;;;;6.73;63.99;103352.03;5098613;27;45468;-76
2022/01/21 02:22:20;;;;;;;;;11.75;4.25;;;;;6.68;64.15;103357.78;5112386;27;45411;-77
2022/01/21 02:24:52;;;;;;;;;12.25;5.25;;;;;6.62;63.87;103342.53;5097954;27;45504;-76
2022/01/21 02:27:18;;;;;;;;;8.75;5.00;;;;;6.61;64.29;103345.97;5119179;27;45483;-76
2022/01/21 02:29:49;;;;;;;;;5.00;3.00;;;;;6.59;64.16;103351.91;5117275;27;47253;-75
2022/01/21 02:32:15;;;;;;;;;7.00;5.00;;;;;6.61;63.95;103352.94;5098018;27;45403;-76
2022/01/21 02:34:41;;;;;;;;;6.25;4.75;;;;;6.59;64.28;103352.81;5106097;27;45508;-76
2022/01/21 02:37:07;;;;;;;;;10.75;6.00;;;;;6.49;64.23;103337.25;5119048;27;45566;-76
2022/01/21 02:39:32;;;;;;;;;4.75;4.75;;;;;6.54;64.22;103349.88;5118606;27;46492;-77
2022/01/21 02:41:57;;;;;;;;;5.50;3.25;;;;;6.51;64.50;103352.31;5118223;27;56747;-75
2022/01/21 02:44:24;;;;;;;;;7.00;3.50;;;;;6.48;64.52;103346.81;5116439;27;45858;-76
2022/01/21 02:46:55;;;;;;;;;7.25;4.75;;;;;6.47;64.41;103351.97;5098411;27;45398;-76
2022/01/21 02:49:20;;;;;;;;;10.00;6.25;;;;;6.48;64.51;103353.78;5099179;27;46289;-76
2022/01/21 02:51:46;;;;;;;;;5.25;3.25;;;;;6.44;64.41;103346.50;5108301;27;62531;-78
2022/01/21 02:54:11;;;;;;;;;4.50;4.50;;;;;6.43;64.35;103345.59;5097206;27;55676;-76
2022/01/21 02:56:37;;;;;;;;;9.50;5.75;;;;;6.38;64.25;103348.72;5099018;27;45423;-76
2022/01/21 02:59:05;;;;;;;;;10.75;4.50;;;;;6.39;64.32;103363.66;5079254;27;46477;-76
2022/01/21 03:01:33;;;;;;;;;7.00;6.00;;;;;6.36;64.50;103358.22;5097720;27;45417;-76
2022/01/21 03:03:58;;;;;;;;;6.75;5.25;;;;;6.35;64.63;103364.28;5097927;27;45440;-76
2022/01/21 03:06:24;;;;;;;;;5.00;4.00;;;;;6.30;64.90;103358.72;5097810;27;45296;-76
2022/01/21 03:08:50;;;;;;;;;11.50;7.25;;;;;6.31;64.51;103357.91;5097546;27;47278;-77
2022/01/21 03:11:15;;;;;;;;;8.00;3.25;;;;;6.27;64.52;103356.75;5102026;27;45188;-76
2022/01/21 03:13:41;;;;;;;;;12.00;5.00;;;;;6.26;64.51;103357.56;5097860;27;45963;-76
2022/01/21 03:16:06;;;;;;;;;9.00;5.00;;;;;6.22;64.61;103358.16;5102841;27;45538;-78
2022/01/21 03:18:32;;;;;;;;;8.50;5.00;;;;;6.22;65.02;103352.00;5101882;27;47443;-77
2022/01/21 03:20:57;;;;;;;;;6.75;4.25;;;;;6.17;64.61;103351.69;5106894;27;61844;-76
2022/01/21 03:23:24;;;;;;;;;8.00;5.00;;;;;6.20;64.85;103358.88;5118193;27;45326;-76
2022/01/21 03:25:50;;;;;;;;;9.00;5.25;;;;;6.20;64.67;103366.75;5118244;27;45503;-76
2022/01/21 03:28:15;;;;;;;;;5.75;5.00;;;;;6.16;64.86;103357.75;5118174;27;47268;-76
2022/01/21 03:30:41;;;;;;;;;11.25;5.00;;;;;6.16;64.93;103357.75;5118166;27;45302;-77
2022/01/21 03:33:06;;;;;;;;;8.00;5.75;;;;;6.15;64.84;103379.53;5117471;27;55451;-77
2022/01/21 03:35:32;;;;;;;;;7.50;4.75;;;;;6.10;64.90;103369.53;5117927;27;47143;-76
2022/01/21 03:37:57;;;;;;;;;8.50;6.00;;;;;6.08;64.92;103364.19;5099497;27;46607;-76
2022/01/21 03:40:23;;;;;;;;;12.50;5.00;;;;;6.07;64.90;103366.69;5100344;27;62324;-76
2022/01/21 03:42:49;;;;;;;;;8.25;6.00;;;;;6.07;64.95;103366.69;5100559;27;58333;-76
2022/01/21 03:45:14;;;;;;;;;10.50;5.00;;;;;6.04;64.93;103373.53;5100925;27;53506;-76
2022/01/21 03:47:41;;;;;;;;;9.75;5.00;;;;;5.97;65.03;103367.78;5102634;27;45677;-76
2022/01/21 03:50:24;;;;;;;;;10.50;6.00;;;;;6.01;65.26;103377.66;5107947;27;45368;-76
2022/01/21 03:52:50;;;;;;;;;5.75;5.75;;;;;6.00;65.32;103373.22;5102584;27;45219;-76
2022/01/21 03:55:16;;;;;;;;;9.50;7.75;;;;;6.08;65.28;103369.44;5083076;27;45550;-76
2022/01/21 03:57:41;;;;;;;;;12.75;5.00;;;;;6.12;65.09;103357.41;5100261;27;63179;-77
2022/01/21 04:00:08;;;;;;;;;11.25;5.75;;;;;6.15;65.54;103368.13;5100877;27;45369;-76
2022/01/21 04:02:33;;;;;;;;;9.75;6.75;;;;;6.20;65.24;103366.75;5100863;27;45484;-75
2022/01/21 04:04:59;;;;;;;;;8.00;6.00;;;;;6.22;65.24;103367.75;5102336;27;55846;-76
2022/01/21 04:07:24;;;;;;;;;9.75;6.00;;;;;6.21;65.15;103365.94;5099968;27;60635;-76
2022/01/21 04:09:50;;;;;;;;;9.00;4.75;;;;;6.18;65.20;103366.66;5100349;27;51973;-76
2022/01/21 04:12:15;;;;;;;;;8.00;4.75;;;;;6.18;65.24;103369.28;5100529;27;45654;-76
2022/01/21 04:14:41;;;;;;;;;6.75;5.25;;;;;6.21;65.24;103379.06;5108899;27;54352;-77
2022/01/21 04:17:07;;;;;;;;;13.25;6.00;;;;;6.21;65.46;103374.72;5101116;27;46866;-76
2022/01/21 04:19:32;;;;;;;;;7.75;5.75;;;;;6.28;65.41;103386.53;5101522;27;61459;-76
2022/01/21 04:21:58;;;;;;;;;9.00;4.75;;;;;6.35;65.24;103385.28;5102882;27;45153;-76
2022/01/21 04:24:23;;;;;;;;;9.25;6.00;;;;;6.39;65.33;103385.59;5100973;27;45213;-76
2022/01/21 04:26:48;;;;;;;;;7.50;5.25;;;;;6.39;65.14;103377.72;5100179;27;46699;-77
2022/01/21 04:29:14;;;;;;;;;4.00;1.75;;;;;6.43;65.21;103381.44;5102851;27;45219;-76
2022/01/21 04:31:40;;;;;;;;;6.50;6.25;;;;;6.50;65.32;103395.09;5102825;27;45314;-76
2022/01/21 04:34:05;;;;;;;;;8.25;6.75;;;;;6.48;64.87;103385.28;5100155;27;53024;-76
2022/01/21 04:36:31;;;;;;;;;6.00;4.75;;;;;6.53;65.01;103391.78;5104324;27;62724;-76
2022/01/21 04:38:59;;;;;;;;;9.75;5.50;;;;;6.57;65.17;103396.44;5099992;27;45362;-76
2022/01/21 04:47:16;;;;;;;;;6.50;5.00;;;;;6.58;64.95;103387.75;5100319;27;45320;-76
2022/01/21 04:47:20;;;;;;;;;5.25;5.25;;;;;6.60;65.04;103391.38;5120478;27;45403;-77
2022/01/21 04:49:46;;;;;;;;;7.50;6.00;;;;;6.57;64.97;103378.97;5120577;27;45524;-77
2022/01/21 04:52:12;;;;;;;;;5.25;3.25;;;;;6.54;64.99;103390.94;5107464;27;45479;-76
2022/01/21 04:54:37;;;;;;;;;8.25;5.75;;;;;6.43;64.99;103376.19;5099638;27;45394;-76
2022/01/21 04:57:03;;;;;;;;;10.50;6.00;;;;;6.39;65.11;103372.47;5106420;27;45692;-75
2022/01/21 04:59:29;;;;;;;;;6.00;5.00;;;;;6.38;65.16;103372.34;5099870;27;45389;-76
2022/01/21 05:01:54;;;;;;;;;4.50;4.00;;;;;6.36;65.24;103377.50;5099881;27;45290;-77
2022/01/21 05:04:20;;;;;;;;;12.25;8.75;;;;;6.38;65.33;103389.00;5099817;27;45700;-76
2022/01/21 05:06:47;;;;;;;;;8.50;5.00;;;;;6.39;65.27;103377.72;5099447;27;46438;-77
2022/01/21 05:09:15;;;;;;;;;8.00;2.75;;;;;6.45;65.33;103386.00;5099463;27;45342;-75
2022/01/21 05:11:41;;;;;;;;;8.00;4.00;;;;;6.52;65.12;103403.06;5117427;27;46885;-76
2022/01/21 05:14:22;;;;;;;;;9.00;5.25;;;;;6.55;65.26;103403.25;5113461;27;45614;-76
2022/01/21 05:16:50;;;;;;;;;11.50;5.75;;;;;6.58;65.24;103395.63;5099181;27;46644;-76
2022/01/21 05:19:17;;;;;;;;;6.25;5.00;;;;;6.59;65.22;103405.31;5099547;27;45401;-76
2022/01/21 05:21:43;;;;;;;;;12.75;5.50;;;;;6.57;64.94;103391.19;5108257;27;46224;-76
2022/01/21 05:24:09;;;;;;;;;5.00;2.50;;;;;6.59;64.99;103380.78;5099543;27;45678;-76
2022/01/21 05:26:38;;;;;;;;;5.75;5.00;;;;;6.64;65.03;103392.50;5106549;27;47300;-76
2022/01/21 05:29:07;;;;;;;;;10.00;5.00;;;;;6.66;65.00;103391.81;5098960;27;45398;-76
2022/01/21 05:31:32;;;;;;;;;7.50;6.50;;;;;6.70;65.16;103393.81;5099386;27;45457;-77
2022/01/21 05:33:58;;;;;;;;;8.00;5.50;;;;;6.67;64.96;103388.38;5099417;27;45425;-75
2022/01/21 05:36:26;;;;;;;;;11.50;6.75;;;;;6.73;64.95;103398.38;5098399;27;63555;-76
2022/01/21 05:38:54;;;;;;;;;5.50;5.00;;;;;6.70;64.71;103387.66;5099213;27;45338;-76
2022/01/21 05:41:22;;;;;;;;;5.75;3.25;;;;;6.74;64.95;103393.22;5109139;27;45449;-76
2022/01/21 05:43:49;;;;;;;;;8.00;5.00;;;;;6.77;64.92;103397.78;5119852;27;45466;-77
2022/01/21 05:46:26;;;;;;;;;6.00;5.00;;;;;6.78;64.92;103400.50;5119377;27;46418;-76
2022/01/21 05:48:51;;;;;;;;;2.00;2.00;;;;;6.80;64.65;103417.25;5105668;27;45214;-76
2022/01/21 05:51:17;;;;;;;;;5.00;3.00;;;;;6.78;64.68;103404.84;5103221;27;53057;-76
2022/01/21 05:53:43;;;;;;;;;9.25;2.75;;;;;6.79;64.75;103412.81;5119383;27;45357;-77
2022/01/21 05:56:08;;;;;;;;;16.75;6.25;;;;;6.77;64.67;103401.31;5103655;27;46293;-76
2022/01/21 05:58:34;;;;;;;;;7.50;3.50;;;;;6.73;64.70;103403.63;5107032;27;57186;-76
2022/01/21 06:00:59;;;;;;;;;5.00;5.00;;;;;6.71;64.84;103414.03;5098088;27;45517;-76
2022/01/21 06:03:24;;;;;;;;;12.00;4.75;;;;;6.70;64.76;103420.06;5105453;27;45579;-76
2022/01/21 06:05:50;;;;;;;;;10.75;5.00;;;;;6.69;64.73;103418.25;5081268;27;58548;-77
2022/01/21 06:08:15;;;;;;;;;7.25;3.50;;;;;6.66;64.79;103417.13;5098830;27;45545;-76
2022/01/21 06:10:41;;;;;;;;;7.50;4.00;;;;;6.63;64.77;103419.56;5086531;27;45698;-76
2022/01/21 06:13:06;;;;;;;;;7.25;5.00;;;;;6.59;64.76;103420.16;5098910;27;45273;-76
2022/01/21 06:15:32;;;;;;;;;5.25;5.00;;;;;6.52;64.73;103413.56;5098858;27;55834;-77
2022/01/21 06:17:57;;;;;;;;;6.00;6.00;;;;;6.53;64.98;103428.50;5105509;27;45412;-77
2022/01/21 06:20:23;;;;;;;;;5.25;3.75;;;;;6.45;65.10;103421.84;5106545;27;45374;-78
2022/01/21 06:22:48;;;;;;;;;6.00;4.00;;;;;6.46;65.06;103427.19;5109573;27;51371;-78
2022/01/21 06:25:13;;;;;;;;;3.25;3.25;;;;;6.49;65.05;103431.72;5115631;27;46642;-78
2022/01/21 06:27:39;;;;;;;;;5.00;2.50;;;;;6.50;65.03;103429.22;5117319;27;57513;-79
2022/01/21 06:30:06;;;;;;;;;7.50;6.00;;;;;6.53;65.03;103415.38;5118899;27;45456;-81
2022/01/21 06:32:31;;;;;;;;;10.00;5.00;;;;;6.59;65.28;103426.31;5118928;27;45398;-80
2022/01/21 06:34:56;;;;;;;;;7.25;6.25;;;;;6.65;65.07;103423.19;5111230;27;62697;-80
2022/01/21 06:37:22;;;;;;;;;6.75;4.25;;;;;6.71;65.02;103434.09;5070206;27;53141;-77
2022/01/21 06:39:47;;;;;;;;;5.00;4.75;;;;;6.74;64.94;103436.97;5097687;27;56249;-77
2022/01/21 06:42:13;;;;;;;;;6.00;5.00;;;;;6.72;64.69;103426.34;5097927;27;53096;-78
2022/01/21 06:44:38;;;;;;;;;5.00;3.50;;;;;6.76;64.79;103444.13;5098020;27;46450;-78
2022/01/21 06:47:04;;;;;;;;;7.00;5.00;;;;;6.77;64.74;103435.47;5097960;27;51045;-76
2022/01/21 06:49:29;;;;;;;;;8.25;4.75;;;;;6.63;64.50;103420.47;5112613;27;45445;-77
2022/01/21 06:51:54;;;;;;;;;7.50;3.50;;;;;6.79;64.63;103449.59;5099962;27;49226;-76
2022/01/21 06:54:20;;;;;;;;;6.25;5.00;;;;;6.82;64.85;103455.06;5096847;27;62330;-78
2022/01/21 06:56:45;;;;;;;;;11.75;6.00;;;;;6.82;64.61;103446.28;5097153;27;59404;-80
2022/01/21 06:59:11;;;;;;;;;5.50;5.50;;;;;6.85;64.61;103448.19;5097967;27;45480;-82
2022/01/21 07:01:36;;;;;;;;;7.00;5.00;;;;;6.85;64.56;103449.09;5079248;27;53512;-78
2022/01/21 07:04:01;;;;;;;;;6.75;4.50;;;;;6.85;64.46;103438.59;5100399;27;50069;-83
2022/01/21 07:06:27;;;;;;;;;10.75;4.50;;;;;6.86;64.68;103453.53;5102325;27;45402;-76
2022/01/21 07:08:52;;;;;;;;;6.75;3.25;;;;;6.88;64.78;103456.28;5097760;27;45391;-76
2022/01/21 07:11:18;;;;;;;;;7.50;6.00;;;;;6.90;64.74;103459.91;5096781;27;45388;-76
2022/01/21 07:13:43;;;;;;;;;5.00;5.00;;;;;6.89;64.49;103456.38;5097658;27;45937;-79
2022/01/21 07:16:09;;;;;;;;;4.75;4.75;;;;;6.89;64.71;103455.47;5103858;27;45732;-77
2022/01/21 07:18:34;;;;;;;;;8.50;4.50;;;;;6.91;64.69;103456.47;5100556;27;54987;-75
2022/01/21 07:20:59;;;;;;;;;7.00;5.00;;;;;6.85;64.54;103456.06;5111100;27;45823;-77
2022/01/21 07:23:25;;;;;;;;;8.75;3.25;;;;;6.90;64.66;103478.31;5115401;27;60704;-79
2022/01/21 07:25:50;;;;;;;;;9.50;7.00;;;;;6.89;64.59;103484.38;5110561;27;61043;-76
2022/01/21 07:28:15;;;;;;;;;10.25;4.50;;;;;6.88;64.50;103483.47;5110911;27;48705;-78
2022/01/21 07:30:41;;;;;;;;;7.00;3.00;;;;;6.88;64.68;103475.59;5110396;27;45401;-78
2022/01/21 07:33:07;;;;;;;;;7.50;5.00;;;;;6.89;64.76;103485.28;5110044;27;56579;-78
2022/01/21 07:35:32;;;;;;;;;6.00;5.00;;;;;6.90;64.63;103486.19;5108494;27;45491;-78
2022/01/21 07:37:59;;;;;;;;;13.00;6.00;;;;;6.86;64.51;103479.78;5115802;27;57106;-78
2022/01/21 07:40:25;;;;;;;;;5.25;5.00;;;;;6.85;64.91;103492.84;5091438;27;45790;-77
2022/01/21 07:42:50;;;;;;;;;7.25;6.00;;;;;6.85;64.69;103493.75;5110105;27;45826;-77
2022/01/21 07:45:15;;;;;;;;;12.50;5.25;;;;;6.89;64.62;103494.88;5110802;27;49973;-77
2022/01/21 07:47:41;;;;;;;;;8.75;6.00;;;;;6.89;64.71;103481.75;5106493;27;54480;-77
2022/01/21 07:50:07;;;;;;;;;8.00;7.00;;;;;6.91;64.76;103488.91;5113629;27;45500;-77
2022/01/21 07:52:32;;;;;;;;;14.25;7.00;;;;;6.95;64.57;103498.81;5109371;27;46714;-77
2022/01/21 07:54:58;;;;;;;;;9.25;6.25;;;;;6.96;64.64;103499.72;5105140;27;58887;-77
2022/01/21 07:57:23;;;;;;;;;9.75;8.75;;;;;6.95;64.53;103501.44;5112317;27;50963;-77
2022/01/21 07:59:48;;;;;;;;;9.75;7.00;;;;;6.97;64.41;103515.59;5110243;27;55528;-78
2022/01/21 08:02:14;;;;;;;;;17.25;9.00;;;;;6.94;64.51;103499.63;5114818;27;47269;-77
2022/01/21 08:04:39;;;;;;;;;10.50;5.25;;;;;6.98;64.42;103512.19;5112236;27;59517;-77
2022/01/21 08:07:04;;;;;;;;;13.25;10.00;;;;;7.01;64.52;103519.34;5101796;27;55072;-77
2022/01/21 08:09:30;;;;;;;;;13.25;7.00;;;;;7.02;64.49;103518.53;5108880;27;45396;-76
2022/01/21 08:11:55;;;;;;;;;14.75;9.50;;;;;6.96;64.53;103502.34;5103674;27;62937;-75
2022/01/21 08:14:21;;;;;;;;;14.00;7.50;;;;;7.03;64.10;103510.78;5105101;27;45535;-75
2022/01/21 08:16:47;;;;;;;;;9.75;7.25;;;;;7.08;64.58;103514.63;5107828;27;45351;-75
2022/01/21 08:19:13;;;;;;;;;18.25;7.50;;;;;7.11;64.41;103513.00;5104788;27;46940;-75
2022/01/21 08:21:39;;;;;;;;;8.00;8.00;;;;;7.12;64.41;103509.56;5110262;27;47435;-75
2022/01/21 08:24:06;;;;;;;;;14.50;10.25;;;;;7.14;64.16;103522.03;5117435;27;45353;-75
2022/01/21 08:26:32;;;;;;;;;13.50;10.25;;;;;7.17;64.55;103521.31;5105498;27;45584;-76
2022/01/21 08:28:57;;;;;;;;;15.25;11.50;;;;;7.19;64.36;103523.25;5107518;27;45543;-76
2022/01/21 08:31:23;;;;;;;;;16.50;13.75;;;;;7.18;64.39;103508.25;5117999;27;47210;-76
2022/01/21 08:33:49;;;;;;;;;10.50;10.00;;;;;7.24;64.36;103518.28;5116283;27;45419;-76
2022/01/21 08:36:15;;;;;;;;;14.00;10.25;;;;;7.26;64.44;103524.56;5107598;27;45401;-75
2022/01/21 08:38:40;;;;;;;;;13.75;10.50;;;;;7.28;64.28;103517.69;5119601;27;45370;-76
2022/01/21 08:41:05;;;;;;;;;13.00;9.75;;;;;7.25;64.29;103520.13;5094471;27;46557;-76
2022/01/21 08:43:31;;;;;;;;;13.00;10.25;;;;;7.30;64.08;103518.72;5108305;27;45512;-76
2022/01/21 08:45:56;;;;;;;;;27.50;18.00;;;;;7.26;64.36;103516.69;5107982;27;58977;-75
2022/01/21 08:48:22;;;;;;;;;18.00;13.00;;;;;7.29;64.00;103530.00;5106858;27;55267;-76
2022/01/21 08:50:47;;;;;;;;;15.75;12.75;;;;;7.31;64.10;103524.06;5114759;27;53466;-75
2022/01/21 08:55:56;;;;;;;;;15.50;13.50;;;;;7.39;63.96;103527.19;5114321;27;45412;-76
2022/01/21 08:58:22;;;;;;;;;13.00;13.00;;;;;7.37;64.03;103515.69;5110128;27;45439;-75
2022/01/21 09:00:47;;;;;;;;;16.00;12.50;;;;;7.42;63.90;103524.78;5103574;27;47726;-75
2022/01/21 09:03:13;;;;;;;;;22.50;14.75;;;;;7.45;63.93;103531.94;5110326;27;58721;-75
2022/01/21 09:05:39;;;;;;;;;18.00;12.75;;;;;7.40;63.90;103523.75;5197050;22;45607;-74
2022/01/21 09:08:04;;;;;;;;;18.00;13.25;;;;;7.35;63.81;103531.34;5072744;27;51005;-75
2022/01/21 09:10:30;;;;;;;;;21.50;13.50;;;;;7.31;63.67;103531.03;5075956;28;46181;-75
2022/01/21 09:12:55;;;;;;;;;18.00;12.50;;;;;7.27;64.00;103529.00;5073897;28;45489;-75
2022/01/21 09:15:25;;;;;;;;;17.00;11.25;;;;;7.29;63.89;103530.91;5069314;28;51819;-74
2022/01/21 09:17:50;;;;;;;;;15.75;15.75;;;;;7.30;64.12;103527.50;5075150;28;45602;-75
2022/01/21 09:24:25;;;;;;;;;14.75;13.00;;;;;7.45;64.12;103538.13;5072610;28;45658;-75
2022/01/21 09:26:50;;;;;;;;;14.25;9.50;;;;;7.49;64.15;103537.53;5070292;28;45475;-76
2022/01/21 09:29:16;;;;;;;;;17.50;13.00;;;;;7.56;64.13;103545.03;5052675;28;45554;-75
2022/01/21 09:31:43;;;;;;;;;13.50;10.00;;;;;7.56;63.87;103538.84;5073580;28;46618;-76
2022/01/21 09:34:08;;;;;;;;;15.75;12.50;;;;;7.67;64.02;103550.06;5073381;27;45601;-76
2022/01/21 09:36:33;;;;;;;;;16.00;11.00;;;;;7.72;63.97;103554.81;5057649;28;45446;-77
2022/01/21 09:39:00;;;;;;;;;19.25;14.00;;;;;7.77;64.01;103568.28;5072234;28;46869;-77
2022/01/21 09:41:25;;;;;;;;;19.50;15.25;;;;;7.80;64.06;103576.38;5073844;28;47619;-76
2022/01/21 09:43:53;;;;;;;;;16.75;15.00;;;;;7.84;64.10;103578.41;5054311;28;45493;-75
2022/01/21 09:46:31;;;;;;;;;16.00;15.00;;;;;7.90;63.88;103585.81;5061963;28;45476;-75
2022/01/21 09:49:07;;;;;;;;;15.00;12.25;;;;;7.92;64.15;103581.53;5075861;28;45583;-75
2022/01/21 09:51:34;;;;;;;;;19.00;14.50;;;;;7.95;64.04;103587.03;5068190;28;46602;-75
2022/01/21 09:54:01;;;;;;;;;16.25;15.00;;;;;7.93;64.22;103563.22;5072405;28;45612;-75
2022/01/21 09:56:26;;;;;;;;;20.25;13.75;;;;;8.04;64.18;103574.44;5076728;28;45387;-77
2022/01/21 09:58:52;;;;;;;;;23.25;16.00;;;;;8.10;64.20;103586.31;5058991;28;45388;-77
2022/01/21 10:01:18;;;;;;;;;19.50;14.50;;;;;8.14;64.21;103582.13;5072007;28;66485;-76
2022/01/21 10:03:43;;;;;;;;;18.75;14.25;;;;;8.17;63.97;103581.44;5074610;28;46055;-76
2022/01/21 10:06:09;;;;;;;;;19.50;15.00;;;;;8.17;63.93;103590.22;5073784;28;45569;-75
2022/01/21 10:08:38;;;;;;;;;29.75;18.50;;;;;8.18;63.78;103593.78;5075393;28;45513;-75
2022/01/21 10:11:03;;;;;;;;;26.25;15.75;;;;;8.17;63.97;103586.69;5075298;28;46521;-75
2022/01/21 10:13:31;;;;;;;;;25.75;15.00;;;;;8.20;63.82;103594.78;5054756;28;62054;-77
2022/01/21 10:15:56;;;;;;;;;24.25;16.75;;;;;8.18;63.64;103597.31;5069732;28;45375;-77
2022/01/21 10:18:23;;;;;;;;;13.75;13.75;;;;;8.11;63.85;103584.56;5065880;28;51944;-78
2022/01/21 10:20:59;;;;;;;;;20.25;16.75;;;;;8.20;63.66;103590.41;5072297;28;46526;-77
2022/01/21 10:23:25;;;;;;;;;16.00;15.00;;;;;8.21;63.74;103592.25;5054011;28;45771;-77
2022/01/21 10:26:03;;;;;;;;;20.50;16.50;;;;;8.19;63.59;103579.78;5073532;28;45476;-77
2022/01/21 10:28:30;;;;;;;;;25.50;16.50;;;;;8.26;63.49;103590.84;5066842;28;45700;-78
2022/01/21 10:31:15;;;;;;;;;20.50;16.00;;;;;8.32;63.66;103588.59;5075657;28;46043;-78
2022/01/21 10:33:43;;;;;;;;;28.50;15.50;;;;;8.34;63.71;103586.97;5052887;28;45736;-78
2022/01/21 10:36:23;;;;;;;;;20.50;17.50;;;;;8.46;63.60;103596.50;5074763;28;45536;-78
2022/01/21 10:38:50;;;;;;;;;24.00;17.25;;;;;8.49;63.51;103586.16;5074499;28;45470;-77
2022/01/21 10:41:17;;;;;;;;;21.75;16.75;;;;;8.57;63.62;103579.66;5069642;28;46896;-77
2022/01/21 10:43:43;;;;;;;;;32.00;19.50;;;;;8.60;63.52;103587.75;5071768;28;45372;-79
2022/01/21 10:46:16;;;;;;;;;19.00;15.00;;;;;8.66;63.76;103583.78;5073462;28;45474;-76
2022/01/21 10:49:07;;;;;;;;;24.00;15.25;;;;;8.69;63.44;103575.19;5073818;28;45399;-76
2022/01/21 10:51:37;;;;;;;;;22.75;19.50;;;;;8.76;63.18;103585.28;5068386;28;47469;-76
2022/01/21 10:54:22;;;;;;;;;24.50;16.00;;;;;8.78;63.24;103581.00;5073071;28;45576;-77
2022/01/21 10:57:19;;;;;;;;;27.75;15.50;;;;;8.83;63.11;103573.38;5070865;28;45525;-78
2022/01/21 10:59:58;;;;;;;;;24.75;18.75;;;;;8.85;62.99;103569.13;5072218;28;47328;-77
2022/01/21 11:02:30;;;;;;;;;27.50;20.25;;;;;8.88;62.83;103575.47;5072719;28;47616;-77
2022/01/21 11:04:58;;;;;;;;;25.25;18.50;;;;;8.89;63.12;103569.44;5070883;28;45635;-83
2022/01/21 11:07:45;;;;;;;;;26.50;14.25;;;;;8.92;62.58;103581.88;5056597;28;45560;-80
2022/01/21 11:10:38;;;;;;;;;20.25;14.00;;;;;8.92;62.79;103569.59;5053859;28;45410;-76
2022/01/21 11:13:24;;;;;;;;;21.75;18.00;;;;;8.97;62.86;103566.34;5065125;28;45642;-82
2022/01/21 11:15:54;;;;;;;;;23.75;16.25;;;;;9.07;62.47;103577.53;5069408;28;45425;-80
2022/01/21 11:18:21;;;;;;;;;22.00;15.50;;;;;9.11;62.44;103576.00;5070301;28;45278;-78
2022/01/21 11:21:07;;;;;;;;;18.25;14.50;;;;;9.16;62.47;103582.44;5070155;28;45490;-77
2022/01/21 11:23:33;;;;;;;;;14.50;14.00;;;;;9.16;62.20;103571.91;5052358;28;45553;-81
2022/01/21 11:26:00;;;;;;;;;19.75;13.00;;;;;9.25;62.30;103580.38;5057546;28;45482;-78
2022/01/21 11:28:48;;;;;;;;;12.25;9.25;;;;;9.28;62.04;103572.66;5057666;28;46219;-82
2022/01/21 11:31:18;;;;;;;;;20.25;11.50;;;;;9.32;62.12;103573.72;5074524;27;45604;-76
2022/01/21 11:33:43;;;;;;;;;12.25;10.50;;;;;9.35;62.30;103577.47;5072863;27;46073;-76
2022/01/21 11:36:08;;;;;;;;;17.50;11.75;;;;;9.38;62.09;103574.13;5073742;28;45581;-81
2022/01/21 11:38:37;;;;;;;;;13.00;12.00;;;;;9.37;61.97;103559.09;5057120;28;45406;-76
2022/01/21 11:41:03;;;;;;;;;14.25;11.25;;;;;9.41;62.17;103563.75;5067178;28;45399;-76
2022/01/21 11:43:30;;;;;;;;;15.25;12.00;;;;;9.40;61.15;103564.56;5058979;28;46001;-75
2022/01/21 11:50:59;;;;;;;;;13.00;9.75;;;;;9.43;61.71;103555.13;5071205;28;45474;-76
2022/01/21 11:53:48;;;;;;;;;9.75;8.00;;;;;9.45;61.87;103548.19;5075088;28;54421;-76
2022/01/21 11:56:32;;;;;;;;;11.50;9.00;;;;;9.52;61.73;103549.47;5077101;27;45442;-76
2022/01/21 11:59:35;;;;;;;;;14.00;10.75;;;;;9.53;61.55;103545.09;5078409;28;45572;-76
2022/01/21 12:02:12;;;;;;;;;15.25;7.75;;;;;9.62;61.16;103553.56;5074085;28;45335;-76
2022/01/21 12:04:54;;;;;;;;;17.75;12.00;;;;;9.62;61.35;103545.63;5073264;28;45764;-76
2022/01/21 12:07:35;;;;;;;;;21.00;14.00;;;;;9.73;61.34;103555.09;5076609;28;45493;-76
2022/01/21 12:10:22;;;;;;;;;17.75;12.50;;;;;9.76;61.25;103550.00;5079665;28;45328;-76
2022/01/21 12:18:06;;;;;;;;;13.00;12.00;;;;;9.78;60.88;103555.34;5078801;28;45337;-76
2022/01/21 12:20:32;;;;;;;;;13.50;8.00;;;;;9.79;60.73;103550.16;5078958;28;45513;-76
2022/01/21 12:23:13;;;;;;;;;11.50;9.00;;;;;9.81;61.16;103543.25;5079363;28;45626;-77
2022/01/21 12:26:17;;;;;;;;;13.25;10.00;;;;;9.85;60.52;103533.75;5078791;28;46425;-76